Terminal Aerodrome Forecast
Issued by NWS

Home | Current Version | Previous Version | Text Only | Print | Product List | Glossary On
Versions: 1 2 3 4 5 6 7 8 9 10 11 12 13 14 15 16
000
FTUS42 KTBW 182337
TAFLAL
TAF
KLAL 182337Z 1900/1924 10009KT P6SM SCT070
     FM191000 10006KT 3SM BR FEW010 SCT060
     FM191400 11008KT P6SM FEW020 SCT250
      AMD NOT SKED 1903/1912=

USA.gov is the U.S. government's official web portal to all federal, state and local government web resources and services.